Latest Coastal Weather Observations for Flinders Island Airport

IDV60701

Issued at 11:42 am EST Tuesday 26 September 2017 (issued every 10 minutes, with the page automatically refreshed every 10 minutes)

About coastal observations | Map of coastal stations | Coastal observations for VIC | Marine services | Other Formats
Station Details ID: 099005 Name: FLINDERS ISLAND AIRPORT Lat: -40.09 Lon: 148.00 Height: 9.0 m
Data from the previous 72 hours. | See also: Recent months at Flinders Island Airport
Date/Time
EST
Temp
°C
Wind Pressure Rain since
9am
mm
Weather Cloud Vis
km
Sea
Height
m
Swell
Dir  Spd
kts
Gust
kts
hPa Trend Height
m
Period
s
Dir
26/11:30am 12.0 WSW 17 21 1015.8 - 0.0 - Clear 10 - - - -
26/11:00am 11.7 WSW 17 20 1015.9 - 0.0 - Partly cloudy 10 - - - -
26/10:30am 12.3 WSW 17 20 1016.0 - 0.0 - Partly cloudy 10 - - - -
26/10:00am 11.9 WSW 17 21 1015.9 - 0.0 - Partly cloudy 10 - - - -
26/09:30am 11.6 WSW 16 20 1015.7 - 0.0 - Partly cloudy 10 - - - -
26/09:00am 11.4 WSW 17 21 1015.6 - 0.0 - Mostly clear 10 - - - -
26/08:30am 11.0 WSW 18 23 1015.4 - 0.0 - - 10 - - - -
26/08:00am 10.7 WSW 19 23 1015.0 - 0.0 - - 10 - - - -
26/07:30am 10.1 WSW 19 22 1014.9 - 0.0 - - 10 - - - -
26/07:00am 9.9 WSW 20 26 1014.4 - 0.0 - - 10 - - - -
26/06:30am 9.3 WSW 20 24 1014.1 - 0.0 - - 10 - - - -
26/06:00am 9.2 WSW 22 26 1013.5 - 0.0 - - 10 - - - -
26/05:30am 9.2 WSW 20 24 1013.2 - 0.0 - Partly cloudy 10 - - - -
26/05:00am 9.2 WSW 18 25 1012.9 - 0.0 - - 10 - - - -
26/04:30am 9.3 WSW 20 24 1012.5 - 0.0 - Partly cloudy 10 - - - -
26/04:00am 9.2 WSW 21 26 1012.2 - 0.0 - - 10 - - - -
26/03:30am 9.3 WSW 20 25 1011.9 - 0.0 - Partly cloudy 10 - - - -
26/03:00am 9.4 WSW 22 27 1011.7 - 0.0 - Mostly clear 10 - - - -
26/02:30am 9.3 WSW 23 28 1011.5 - 0.0 - - 10 - - - -
26/02:00am 9.4 WSW 22 28 1011.4 - 0.0 - - 10 - - - -
26/01:30am 9.3 WSW 24 29 1011.2 - 0.0 - - 10 - - - -
26/01:00am 9.3 WSW 24 29 1011.0 - 0.0 - - 10 - - - -
26/12:30am 9.4 WSW 26 32 1010.8 - 0.0 - - 10 - - - -
26/12:00am 9.3 WSW 24 30 1010.8 - 0.0 - - 10 - - - -
 
Date/Time
EST
Temp
°C
Wind Pressure Rain since
9am
mm
Weather Cloud Vis
km
Sea
Height
m
Swell
Dir  Spd
kts
Gust
kts
hPa Trend Height
m
Period
s
Dir
25/11:30pm 9.4 WSW 26 33 1010.3 - 0.0 - - 10 - - - -
25/11:00pm 9.7 WSW 28 33 1010.0 - 0.0 - - 10 - - - -
25/10:30pm 9.6 WSW 26 32 1009.8 - 0.0 - - 10 - - - -
25/10:00pm 9.9 WSW 27 33 1009.5 - 0.0 - - 10 - - - -
25/09:30pm 9.9 WSW 28 34 1009.2 - 0.0 - - 10 - - - -
25/09:00pm 9.9 WSW 27 31 1009.1 - 0.0 - - 10 - - - -
25/08:30pm 10.3 WSW 26 32 1008.7 - 0.0 - Partly cloudy 10 - - - -
25/08:00pm 10.4 WSW 28 33 1008.1 - 0.0 - - 10 - - - -
25/07:30pm 10.4 WSW 28 32 1007.7 - 0.0 - Partly cloudy 10 - - - -
25/07:00pm 10.8 W 28 31 1007.2 - 0.0 - Partly cloudy 10 - - - -
25/06:30pm 11.0 W 27 31 1006.8 - 0.0 - - 10 - - - -
25/06:00pm 11.0 W 26 31 1006.4 - 0.0 - - 10 - - - -
25/05:30pm 11.3 W 28 33 1005.9 - 0.0 - - 10 - - - -
25/05:00pm 11.6 W 25 32 1005.4 - 0.0 - - 10 - - - -
25/04:30pm 11.7 W 29 34 1005.0 - 0.0 - - 10 - - - -
25/04:00pm 11.8 W 26 35 1004.6 - 0.0 - Partly cloudy 10 - - - -
25/03:30pm 12.2 W 29 37 1004.1 - 0.0 - - 10 - - - -
25/03:00pm 12.3 W 26 32 1003.9 - 0.0 - Mostly clear 10 - - - -
25/02:30pm 12.5 W 27 34 1003.8 - 0.0 - - 10 - - - -
25/02:00pm 12.5 W 27 33 1003.9 - 0.0 - - 10 - - - -
25/01:30pm 12.4 W 27 31 1003.7 - 0.0 - - 10 - - - -
25/01:00pm 12.5 W 27 33 1003.7 - 0.0 - - 10 - - - -
25/12:30pm 12.6 W 29 33 1003.4 - 0.0 - - 10 - - - -
25/12:00pm 12.4 W 25 30 1003.4 - 0.0 - - 10 - - - -
25/11:30am 12.4 W 27 32 1003.2 - 0.0 - Partly cloudy 10 - - - -
25/11:00am 12.5 W 26 31 1003.0 - 0.0 - - 10 - - - -
25/10:30am 12.5 W 26 32 1002.9 - 0.0 - - 10 - - - -
25/10:00am 12.0 W 25 30 1002.7 - 0.0 - Partly cloudy 10 - - - -
25/09:30am 11.8 W 25 30 1002.3 - 0.0 - - 10 - - - -
25/09:00am 11.7 WSW 25 29 1002.0 - 17.6 - Mostly clear 10 - - - -
25/08:30am 11.3 WSW 25 30 1001.5 - 17.6 - Partly cloudy 10 - - - -
25/08:00am 11.1 WSW 26 31 1001.1 - 17.6 - Partly cloudy 10 - - - -
25/07:30am 10.7 WSW 28 32 1000.7 - 17.6 - - 10 - - - -
25/07:00am 10.7 W 26 32 1000.4 - 17.6 - - 10 - - - -
25/06:30am 10.4 W 29 34 999.8 - 17.6 - Partly cloudy 10 - - - -
25/06:00am 10.5 W 27 33 999.5 - 17.6 - Mostly clear 10 - - - -
25/05:30am 10.5 W 29 35 998.7 - 17.6 - - 10 - - - -
25/05:00am 10.7 W 28 35 998.2 - 17.6 - - 10 - - - -
25/04:30am 10.9 W 28 33 997.8 - 17.6 - Partly cloudy 10 - - - -
25/04:00am 11.0 W 27 32 997.5 - 17.6 - Partly cloudy 10 - - - -
25/03:30am 11.2 W 22 31 997.1 - 17.6 - Partly cloudy 10 - - - -
25/03:00am 11.3 W 21 27 996.8 - 17.6 - Mostly clear 10 - - - -
25/02:30am 11.4 WNW 20 27 996.3 - 17.6 - Partly cloudy 10 - - - -
25/02:00am 11.5 WNW 21 28 996.0 - 17.6 - Partly cloudy 10 - - - -
25/01:35am 11.5 WNW 19 25 996.0 - 17.6 - Partly cloudy 10 - - - -
25/01:30am 11.3 W 19 26 995.9 - 17.4 - Partly cloudy 10 - - - -
25/01:19am 11.3 W 22 31 995.8 - 17.4 - Partly cloudy 5 - - - -
25/01:00am 11.8 WNW 20 27 995.7 - 17.4 - Partly cloudy 10 - - - -
25/12:54am 11.7 W 20 27 995.6 - 17.4 - Partly cloudy 10 - - - -
25/12:36am 12.0 WNW 21 27 995.3 - 17.4 - Partly cloudy 10 - - - -
25/12:30am 12.0 WNW 20 27 995.1 - 17.4 - Partly cloudy 10 - - - -
25/12:00am 11.8 WNW 19 27 994.8 - 17.4 Recent precip. Cloudy 10 - - - -
 
Date/Time
EST
Temp
°C
Wind Pressure Rain since
9am
mm
Weather Cloud Vis
km
Sea
Height
m
Swell
Dir  Spd
kts
Gust
kts
hPa Trend Height
m
Period
s
Dir
24/11:30pm 10.8 NW 18 23 995.0 - 17.4 - Partly cloudy 7 - - - -
24/11:10pm 10.4 WNW 17 26 994.6 - 17.2 - Partly cloudy 3 - - - -
24/11:00pm 10.2 WNW 18 24 995.0 - 15.2 - Partly cloudy 3 - - - -
24/10:38pm 11.5 WNW 15 27 995.0 - 10.2 - Partly cloudy 5 - - - -
24/10:30pm 11.4 WNW 17 22 994.9 - 9.6 - Partly cloudy 4 - - - -
24/10:27pm 11.4 WNW 18 23 995.1 - 9.2 - Partly cloudy 4 - - - -
24/10:00pm 11.9 NW 18 28 995.4 - 4.4 - Partly cloudy 5 - - - -
24/09:55pm 11.9 NW 19 29 995.3 - 4.2 - Partly cloudy 5 - - - -
24/09:52pm 12.0 NW 20 29 995.3 - 3.8 - Partly cloudy 5 - - - -
24/09:40pm 12.1 NW 19 29 995.2 - 3.0 - Partly cloudy 7 - - - -
24/09:30pm 12.3 NW 21 29 995.4 - 2.6 - Partly cloudy 9 - - - -
24/09:01pm 12.0 NNW 16 26 995.3 - 2.4 - Partly cloudy 10 - - - -
24/09:00pm 12.0 NNW 16 25 995.3 - 2.4 Recent precip. Cloudy 10 - - - -
24/08:59pm 12.0 NNW 15 25 995.3 - 2.4 - Partly cloudy 10 - - - -
24/08:30pm 11.5 NNW 17 25 995.6 - 2.4 - Partly cloudy 10 - - - -
24/08:00pm 11.9 NW 20 24 995.8 - 2.2 - Partly cloudy 10 - - - -
24/07:37pm 12.0 NW 19 29 995.7 - 2.2 - Partly cloudy 10 - - - -
24/07:30pm 12.0 NW 19 26 995.7 - 2.2 - Partly cloudy 10 - - - -
24/07:00pm 13.0 NW 20 30 995.5 - 2.0 - Partly cloudy 10 - - - -
24/06:55pm 13.1 NW 18 30 995.4 - 2.0 - Partly cloudy 10 - - - -
24/06:30pm 12.6 NW 19 27 995.4 - 2.0 - Partly cloudy 10 - - - -
24/06:23pm 12.5 NW 16 27 995.3 - 2.0 - Partly cloudy 9 - - - -
24/06:00pm 12.7 WNW 14 20 995.1 - 1.8 - Cloudy 10 - - - -
24/05:34pm 12.9 WNW 18 28 995.0 - 1.8 - Partly cloudy 10 - - - -
24/05:30pm 13.0 WNW 19 28 995.0 - 1.8 - Partly cloudy 10 - - - -
24/05:00pm 13.7 WNW 14 20 994.7 - 1.8 - Partly cloudy 10 - - - -
24/04:30pm 14.1 WNW 16 21 994.6 - 1.8 - Partly cloudy 10 - - - -
24/04:00pm 14.7 NW 19 26 994.5 - 1.8 - Partly cloudy 10 - - - -
24/03:30pm 14.3 WNW 18 26 994.4 - 1.8 - Partly cloudy 10 - - - -
24/03:00pm 14.0 WNW 19 26 994.5 - 1.8 - Cloudy 10 - - - -
24/02:30pm 14.1 NW 22 28 994.7 - 1.8 - Partly cloudy 10 - - - -
24/02:00pm 14.2 NW 22 29 994.6 - 1.8 - - 10 - - - -
24/01:30pm 13.6 NW 23 30 994.8 - 1.8 - Partly cloudy 10 - - - -
24/01:00pm 13.8 NW 21 30 995.0 - 1.8 - Partly cloudy 10 - - - -
24/12:30pm 12.9 WNW 18 27 995.0 - 1.8 - Partly cloudy 10 - - - -
24/12:25pm 13.1 WNW 17 27 995.0 - 1.8 - Partly cloudy 10 - - - -
24/12:00pm 11.7 WNW 18 23 995.0 - 1.8 - Cloudy 10 - - - -
24/11:30am 11.2 WNW 17 25 994.8 - 1.8 - Partly cloudy 10 - - - -
24/11:00am 10.9 WNW 18 25 995.1 - 1.8 - Partly cloudy 8 - - - -
24/10:59am 10.8 WNW 19 25 995.1 - 1.8 - Partly cloudy 7 - - - -
24/10:36am 10.9 WNW 26 37 995.2 - 0.8 - Partly cloudy 4 - - - -
24/10:30am 11.5 WNW 21 31 995.2 - 0.4 - Partly cloudy 5 - - - -
24/10:01am 14.2 NW 19 29 994.7 - 0.0 - Partly cloudy 10 - - - -
24/10:00am 14.1 NW 19 27 994.6 - 0.0 - Partly cloudy 10 - - - -
24/09:30am 14.6 NW 19 26 994.5 - 0.0 - Partly cloudy 10 - - - -
24/09:00am 14.5 NW 20 27 994.5 - 0.0 - - 10 - - - -
24/08:30am 14.1 NW 19 27 994.3 - 0.0 - Partly cloudy 10 - - - -
24/08:00am 13.7 WNW 14 18 994.5 - 0.0 - Partly cloudy 10 - - - -
24/07:30am 13.5 WNW 15 21 994.6 - 0.0 - Partly cloudy 10 - - - -
24/07:00am 13.1 NW 17 23 994.7 - 0.0 - Partly cloudy 10 - - - -
24/06:30am 12.9 NW 17 26 994.9 - 0.0 - Partly cloudy 10 - - - -
24/06:00am 13.0 NW 17 26 994.8 - 0.0 - Cloudy 10 - - - -
24/05:30am 12.5 NW 15 19 994.7 - 0.0 - Partly cloudy 10 - - - -
24/05:00am 12.7 WNW 15 20 994.5 - 0.0 - Partly cloudy 10 - - - -
24/04:30am 12.6 NW 15 20 994.4 - 0.0 - Partly cloudy 10 - - - -
24/04:00am 13.0 WNW 17 23 994.4 - 0.0 - Partly cloudy 10 - - - -
24/03:30am 13.0 WNW 16 22 994.4 - 0.0 - Partly cloudy 10 - - - -
24/03:00am 12.9 NW 16 22 994.1 - 0.0 - Partly cloudy 10 - - - -
24/02:30am 12.7 NW 14 19 994.3 - 0.0 - Partly cloudy 9 - - - -
24/02:00am 13.0 WNW 16 23 994.3 - 0.0 - Partly cloudy 9 - - - -
24/01:30am 13.1 WNW 18 23 994.2 - 0.0 - Partly cloudy 9 - - - -
24/01:13am 13.1 WNW 16 26 994.4 - 0.0 - Partly cloudy 9 - - - -
24/01:00am 13.3 WNW 18 24 994.5 - 0.0 - Partly cloudy 10 - - - -
24/12:30am 13.2 WNW 17 23 994.7 - 0.0 - Partly cloudy 10 - - - -
24/12:00am 13.2 WNW 17 21 994.5 - 0.0 - Partly cloudy 10 - - - -
 
Date/Time
EST
Temp
°C
Wind Pressure Rain since
9am
mm
Weather Cloud Vis
km
Sea
Height
m
Swell
Dir  Spd
kts
Gust
kts
hPa Trend Height
m
Period
s
Dir
23/11:30pm 13.1 WNW 17 22 994.7 - 0.0 - - 10 - - - -
23/11:00pm 13.2 WNW 20 26 994.8 - 0.0 - - 10 - - - -
23/10:42pm 13.3 WNW 16 27 994.8 - 0.0 - - 10 - - - -
23/10:30pm 13.5 WNW 15 21 994.8 - 0.0 - Partly cloudy 10 - - - -
23/10:00pm 13.5 WNW 11 15 994.2 - 0.0 - Partly cloudy 10 - - - -
23/09:30pm 13.6 W 10 13 994.2 - 0.0 - Partly cloudy 10 - - - -
23/09:00pm 13.8 WSW 16 20 994.0 - 0.0 - Cloudy 10 - - - -
23/08:30pm 14.0 WSW 19 24 994.1 - 0.0 - Partly cloudy 10 - - - -
23/08:00pm 13.9 W 24 30 993.9 - 0.0 - Partly cloudy 10 - - - -
23/07:53pm 14.0 W 25 32 993.8 - 0.0 - Partly cloudy 10 - - - -
23/07:30pm 14.9 W 23 30 991.7 - 0.0 - - 10 - - - -
23/07:16pm 17.3 WNW 19 32 990.7 - 0.0 - - 10 - - - -
23/07:00pm 21.4 NW 16 21 988.8 - 0.0 - - 10 - - - -
23/06:30pm 23.8 NW 14 19 987.9 - 0.0 - - 10 - - - -
23/06:00pm 21.5 WSW 5 7 987.5 - 0.0 - - 10 - - - -
23/05:30pm 21.4 NE 5 6 987.5 - 0.0 - - 10 - - - -
23/05:00pm 21.8 NNE 6 10 987.5 - 0.0 - - 10 - - - -
23/04:30pm 21.8 S 7 11 987.8 - 0.0 - - 10 - - - -
23/04:00pm 23.0 NE 8 15 988.1 - 0.0 - - 10 - - - -
23/03:30pm 23.7 NE 7 12 988.3 - 0.0 - - 10 - - - -
23/03:00pm 23.4 ESE 3 7 989.0 - 0.0 - - 10 - - - -
23/02:30pm 21.9 ESE 5 6 990.3 - 0.0 - - 10 - - - -
23/02:00pm 21.1 E 6 7 991.3 - 0.0 - - 10 - - - -
23/01:30pm 20.3 SE 3 6 992.5 - 0.0 - - 10 - - - -
23/01:00pm 18.4 SSW 5 7 993.4 - 0.0 - - 10 - - - -
23/12:30pm 19.2 SW 5 9 994.0 - 0.0 - - 10 - - - -
23/12:00pm 19.9 W 6 9 994.7 - 0.0 - Mostly cloudy 10 - - - -

Other Formats:

Comma delimited format used in spreadsheet applications
http://www.bom.gov.au/fwo/IDV60701/IDV60701.94980.axf

JavaScript Object Notation format (JSON) in row-major order
http://www.bom.gov.au/fwo/IDV60701/IDV60701.94980.json